createdAt,value
2019-02-05T00:00:08.109Z,9.70
2019-02-05T00:01:08.142Z,7.70
2019-02-05T00:02:08.086Z,8.40
2019-02-05T00:03:08.075Z,8.10
2019-02-05T00:04:08.064Z,8.60
2019-02-05T00:05:08.052Z,8.10
2019-02-05T00:06:08.057Z,8.00
2019-02-05T00:07:08.060Z,7.30
2019-02-05T00:08:08.019Z,9.00
2019-02-05T00:09:08.008Z,6.90
2019-02-05T00:10:07.998Z,8.00
2019-02-05T00:11:07.988Z,7.30
2019-02-05T00:12:07.992Z,7.70
2019-02-05T00:13:07.992Z,7.70
2019-02-05T00:14:07.952Z,9.00
2019-02-05T00:15:07.946Z,6.90
2019-02-05T00:16:07.932Z,8.10
2019-02-05T00:17:07.924Z,8.60
2019-02-05T00:18:07.932Z,9.00
2019-02-05T00:19:07.914Z,8.10
2019-02-05T00:20:07.886Z,8.60
2019-02-05T00:21:07.874Z,9.10
2019-02-05T00:22:07.864Z,8.40
2019-02-05T00:23:07.851Z,8.40
2019-02-05T00:24:07.861Z,9.20
2019-02-05T00:25:07.860Z,8.10
2019-02-05T00:26:07.820Z,8.90
2019-02-05T00:27:07.807Z,8.60
2019-02-05T00:28:07.796Z,7.80
2019-02-05T00:29:07.785Z,8.60
2019-02-05T00:30:07.784Z,8.40
2019-02-05T00:31:07.809Z,8.10
2019-02-05T00:32:07.756Z,9.40
2019-02-05T00:33:07.741Z,9.60
2019-02-05T00:34:07.732Z,8.60
2019-02-05T00:35:07.733Z,7.90
2019-02-05T00:36:07.707Z,9.10
2019-02-05T00:37:07.728Z,7.90
2019-02-05T00:38:07.685Z,9.50
2019-02-05T00:39:07.673Z,7.80
2019-02-05T00:40:07.662Z,8.20
2019-02-05T00:41:07.664Z,8.50
2019-02-05T00:42:07.640Z,8.60
2019-02-05T00:43:07.663Z,6.70
2019-02-05T00:44:07.618Z,8.80
2019-02-05T00:45:07.608Z,8.30
2019-02-05T00:46:07.606Z,8.30
2019-02-05T00:47:07.584Z,8.90
2019-02-05T00:48:07.583Z,9.90
2019-02-05T00:49:07.578Z,8.90
2019-02-05T00:50:07.551Z,8.10
2019-02-05T00:51:07.540Z,9.40
2019-02-05T00:52:07.544Z,9.30
2019-02-05T00:53:07.518Z,8.60
2019-02-05T00:54:07.507Z,8.80
2019-02-05T00:55:07.515Z,8.30
2019-02-05T00:56:17.271Z,9.90
2019-02-05T00:57:08.487Z,8.20
2019-02-05T00:58:07.462Z,8.10
2019-02-05T00:59:07.450Z,8.40
2019-02-05T01:00:07.439Z,9.30
2019-02-05T01:01:07.446Z,7.90
2019-02-05T01:02:07.431Z,10.10
2019-02-05T01:03:07.435Z,10.20
2019-02-05T01:04:07.394Z,8.00
2019-02-05T01:05:07.384Z,8.30
2019-02-05T01:06:07.372Z,8.00
2019-02-05T01:07:07.386Z,9.30
2019-02-05T01:08:07.350Z,11.40
2019-02-05T01:09:07.352Z,7.90
2019-02-05T01:10:07.327Z,8.90
2019-02-05T01:11:07.338Z,8.40
2019-02-05T01:12:07.305Z,8.90
2019-02-05T01:13:07.329Z,9.50
2019-02-05T01:14:07.289Z,7.90
2019-02-05T01:15:07.272Z,9.20
2019-02-05T01:16:07.262Z,7.90
2019-02-05T01:17:07.274Z,8.90
2019-02-05T01:18:07.239Z,8.90
2019-02-05T01:19:07.254Z,9.10
2019-02-05T01:20:07.216Z,7.90
2019-02-05T01:21:07.205Z,8.90
2019-02-05T01:22:07.193Z,8.50
2019-02-05T01:23:07.202Z,9.20
2019-02-05T01:24:07.172Z,8.10
2019-02-05T01:25:07.190Z,9.40
2019-02-05T01:26:07.151Z,8.50
2019-02-05T01:27:07.142Z,9.00
2019-02-05T01:28:07.127Z,8.80
2019-02-05T01:29:07.127Z,8.40
2019-02-05T01:30:07.107Z,8.10
2019-02-05T01:31:07.127Z,8.60
2019-02-05T01:32:07.083Z,7.50
2019-02-05T01:33:07.071Z,9.60
2019-02-05T01:34:07.074Z,10.30
2019-02-05T01:35:07.049Z,10.20
2019-02-05T01:36:07.038Z,10.10
2019-02-05T01:37:07.057Z,10.40
2019-02-05T01:38:07.016Z,9.20
2019-02-05T01:39:07.004Z,8.50
2019-02-05T01:40:07.008Z,10.90
2019-02-05T01:41:06.982Z,10.10
2019-02-05T01:42:06.984Z,10.00
2019-02-05T01:43:06.994Z,9.10
2019-02-05T01:44:06.950Z,8.60
2019-02-05T01:45:06.937Z,8.80
2019-02-05T01:46:06.943Z,11.00
2019-02-05T01:47:06.915Z,11.80
2019-02-05T01:48:06.904Z,10.40
2019-02-05T01:49:06.912Z,10.00
2019-02-05T01:50:06.881Z,9.60
2019-02-05T01:51:06.872Z,9.60
2019-02-05T01:52:06.875Z,9.00
2019-02-05T01:53:06.851Z,10.40
2019-02-05T01:54:06.844Z,11.10
2019-02-05T01:55:06.853Z,11.50
2019-02-05T01:56:06.815Z,10.80
2019-02-05T01:57:06.806Z,9.30
2019-02-05T01:58:06.814Z,10.40
2019-02-05T01:59:06.782Z,10.40
2019-02-05T02:00:06.771Z,11.20
2019-02-05T02:01:06.782Z,10.20
2019-02-05T02:02:06.749Z,11.50
2019-02-05T02:03:06.737Z,12.20
2019-02-05T02:04:06.738Z,11.20
2019-02-05T02:05:06.715Z,11.50
2019-02-05T02:06:06.703Z,13.00
2019-02-05T02:07:06.725Z,12.60
2019-02-05T02:08:06.683Z,11.20
2019-02-05T02:09:06.689Z,10.50
2019-02-05T02:10:06.659Z,11.90
2019-02-05T02:11:06.648Z,11.00
2019-02-05T02:12:06.636Z,10.60
2019-02-05T02:13:06.647Z,13.80
2019-02-05T02:14:06.615Z,15.10
2019-02-05T02:15:06.622Z,14.20
2019-02-05T02:16:06.592Z,14.30
2019-02-05T02:17:06.581Z,12.20
2019-02-05T02:18:06.572Z,11.30
2019-02-05T02:19:06.581Z,12.20
2019-02-05T02:20:06.548Z,13.70
2019-02-05T02:21:06.549Z,15.30
2019-02-05T02:22:06.526Z,13.30
2019-02-05T02:23:06.515Z,13.30
2019-02-05T02:24:06.503Z,14.90
2019-02-05T02:25:06.509Z,14.00
2019-02-05T02:26:06.497Z,13.10
2019-02-05T02:27:06.470Z,15.10
2019-02-05T02:28:06.459Z,13.10
2019-02-05T02:29:06.448Z,15.50
2019-02-05T02:30:06.438Z,14.30
2019-02-05T02:31:06.455Z,13.70
2019-02-05T02:32:06.426Z,15.20
2019-02-05T02:33:06.403Z,13.60
2019-02-05T02:34:06.393Z,14.70
2019-02-05T02:35:06.395Z,14.50
2019-02-05T02:36:06.392Z,14.40
2019-02-05T02:37:06.400Z,16.40
2019-02-05T02:38:06.346Z,17.40
2019-02-05T02:39:06.349Z,14.60
2019-02-05T02:40:06.325Z,15.10
2019-02-05T02:41:06.314Z,16.20
2019-02-05T02:42:06.303Z,15.60
2019-02-05T02:43:06.328Z,15.60
2019-02-05T02:44:06.279Z,15.30
2019-02-05T02:45:06.291Z,15.00
2019-02-05T02:46:06.258Z,16.60
2019-02-05T02:47:06.247Z,19.60
2019-02-05T02:48:06.236Z,16.50
2019-02-05T02:49:06.259Z,14.70
2019-02-05T02:50:06.214Z,16.90
2019-02-05T02:51:06.219Z,17.00
2019-02-05T02:52:06.192Z,14.70
2019-02-05T02:53:06.185Z,17.90
2019-02-05T02:54:06.171Z,18.10
2019-02-05T02:55:06.189Z,15.70
2019-02-05T02:56:06.149Z,16.10
2019-02-05T02:57:06.156Z,16.80
2019-02-05T02:58:06.126Z,16.30
2019-02-05T02:59:06.113Z,17.10
2019-02-05T03:00:06.103Z,15.70
2019-02-05T03:01:06.112Z,18.20
2019-02-05T03:02:06.079Z,17.30
2019-02-05T03:03:06.088Z,19.70
2019-02-05T03:04:06.060Z,18.20
2019-02-05T03:05:06.048Z,19.30
2019-02-05T03:06:06.036Z,18.80
2019-02-05T03:07:06.069Z,16.70
2019-02-05T03:08:06.013Z,16.60
2019-02-05T03:09:06.024Z,15.90
2019-02-05T03:10:05.991Z,22.00
2019-02-05T03:11:05.979Z,17.20
2019-02-05T03:12:05.969Z,16.50
2019-02-05T03:13:05.978Z,18.70
2019-02-05T03:14:05.946Z,18.10
2019-02-05T03:15:05.950Z,19.70
2019-02-05T03:16:05.924Z,18.50
2019-02-05T03:17:05.914Z,19.10
2019-02-05T03:18:05.902Z,20.10
2019-02-05T03:19:05.915Z,18.00
2019-02-05T03:20:05.881Z,18.20
2019-02-05T03:21:05.975Z,19.40
2019-02-05T03:22:05.857Z,18.80
2019-02-05T03:23:05.846Z,16.40
2019-02-05T03:24:05.837Z,18.90
2019-02-05T03:25:05.852Z,16.10
2019-02-05T03:26:05.827Z,18.70
2019-02-05T03:27:16.902Z,18.80
2019-02-05T03:28:06.790Z,21.10
2019-02-05T03:29:05.780Z,19.10
2019-02-05T03:30:05.770Z,18.50
2019-02-05T03:31:05.782Z,20.10
2019-02-05T03:32:05.764Z,20.20
2019-02-05T03:33:05.736Z,19.50
2019-02-05T03:34:05.726Z,20.10
2019-02-05T03:35:05.715Z,20.40
2019-02-05T03:36:05.701Z,19.60
2019-02-05T03:37:05.734Z,19.70
2019-02-05T03:38:05.699Z,19.70
2019-02-05T03:39:05.670Z,23.20
2019-02-05T03:40:05.657Z,24.20
2019-02-05T03:41:05.701Z,22.80
2019-02-05T03:42:05.635Z,22.30
2019-02-05T03:43:05.660Z,23.50
2019-02-05T03:44:05.624Z,24.20
2019-02-05T03:45:05.610Z,20.60
2019-02-05T03:46:05.596Z,20.70
2019-02-05T03:47:05.579Z,22.70
2019-02-05T03:48:05.568Z,20.20
2019-02-05T03:49:05.601Z,20.70
2019-02-05T03:50:05.547Z,27.00
2019-02-05T03:51:05.537Z,23.80
2019-02-05T03:52:05.525Z,21.00
2019-02-05T03:53:05.515Z,21.20
2019-02-05T03:54:05.503Z,22.30
2019-02-05T03:55:05.549Z,20.80
2019-02-05T03:56:05.481Z,20.40
2019-02-05T03:57:05.473Z,24.00
2019-02-05T03:58:05.463Z,24.00
2019-02-05T03:59:05.447Z,23.80
2019-02-05T04:00:05.436Z,19.10
2019-02-05T04:01:05.464Z,21.70
2019-02-05T04:02:05.413Z,22.40
2019-02-05T04:03:05.401Z,26.00
2019-02-05T04:04:05.428Z,21.00
2019-02-05T04:05:05.381Z,24.00
2019-02-05T04:06:05.370Z,23.50
2019-02-05T04:07:05.397Z,24.70
2019-02-05T04:08:05.346Z,21.80
2019-02-05T04:09:05.358Z,23.80
2019-02-05T04:10:05.323Z,23.80
2019-02-05T04:11:05.313Z,22.50
2019-02-05T04:12:05.335Z,23.20
2019-02-05T04:13:05.307Z,25.80
2019-02-05T04:14:05.279Z,23.80
2019-02-05T04:15:05.272Z,23.70
2019-02-05T04:16:05.258Z,24.20
2019-02-05T04:17:05.246Z,23.20
2019-02-05T04:18:05.273Z,24.70
2019-02-05T04:19:05.234Z,25.60
2019-02-05T04:20:05.212Z,24.00
2019-02-05T04:21:05.201Z,24.50
2019-02-05T04:22:05.192Z,25.50
2019-02-05T04:23:05.178Z,26.00
2019-02-05T04:24:05.200Z,27.10
2019-02-05T04:25:05.159Z,24.20
2019-02-05T04:26:05.147Z,26.20
2019-02-05T04:27:05.136Z,24.40
2019-02-05T04:28:05.130Z,29.30
2019-02-05T04:29:05.125Z,26.90
2019-02-05T04:30:05.159Z,23.70
2019-02-05T04:31:05.095Z,27.00
2019-02-05T04:32:05.080Z,27.60
2019-02-05T04:33:05.068Z,33.20
2019-02-05T04:34:05.058Z,28.50
2019-02-05T04:35:05.047Z,31.70
2019-02-05T04:36:05.071Z,26.20
2019-02-05T04:37:05.026Z,28.20
2019-02-05T04:38:05.024Z,27.50
2019-02-05T04:39:05.002Z,27.70
2019-02-05T04:40:05.005Z,28.60
2019-02-05T04:41:04.985Z,29.30
2019-02-05T04:42:05.014Z,27.60
2019-02-05T04:43:04.958Z,28.90
2019-02-05T04:44:04.946Z,27.00
2019-02-05T04:45:04.943Z,31.50
2019-02-05T04:46:04.926Z,26.90
2019-02-05T04:47:04.929Z,32.80
2019-02-05T04:48:04.938Z,27.80
2019-02-05T04:49:04.891Z,26.30
2019-02-05T04:50:04.880Z,29.00
2019-02-05T04:51:04.879Z,29.70
2019-02-05T04:52:04.870Z,33.10
2019-02-05T04:53:04.849Z,29.90
2019-02-05T04:54:04.878Z,27.20
2019-02-05T04:55:04.826Z,24.50
2019-02-05T04:56:04.815Z,28.40
2019-02-05T04:57:04.816Z,28.10
2019-02-05T04:58:04.808Z,30.00
2019-02-05T04:59:04.784Z,31.80
2019-02-05T05:00:04.787Z,28.10
2019-02-05T05:01:04.759Z,30.90
2019-02-05T05:02:04.748Z,30.30
2019-02-05T05:03:04.737Z,30.20
2019-02-05T05:04:04.746Z,31.40
2019-02-05T05:05:04.713Z,32.30
2019-02-05T05:06:04.702Z,29.90
2019-02-05T05:07:04.691Z,28.40
2019-02-05T05:08:04.679Z,33.80
2019-02-05T05:09:04.671Z,27.50
2019-02-05T05:10:04.669Z,31.20
2019-02-05T05:11:04.655Z,28.10
2019-02-05T05:12:04.635Z,36.20
2019-02-05T05:13:04.629Z,32.80
2019-02-05T05:14:04.615Z,27.30
2019-02-05T05:15:04.618Z,29.40
2019-02-05T05:16:04.592Z,33.60
2019-02-05T05:17:04.586Z,34.70
2019-02-05T05:18:04.579Z,29.00
2019-02-05T05:19:04.567Z,33.10
2019-02-05T05:20:04.568Z,36.40
2019-02-05T05:21:04.557Z,34.60
2019-02-05T05:22:04.525Z,33.60
2019-02-05T05:23:04.519Z,37.40
2019-02-05T05:24:04.506Z,34.60
2019-02-05T05:25:04.495Z,36.60
2019-02-05T05:26:04.488Z,35.10
2019-02-05T05:27:04.501Z,35.20
2019-02-05T05:28:10.015Z,33.70
2019-02-05T05:29:05.455Z,36.20
2019-02-05T05:30:04.444Z,36.50
2019-02-05T05:31:04.439Z,30.50
2019-02-05T05:32:04.420Z,35.50
2019-02-05T05:33:04.420Z,33.70
2019-02-05T05:34:04.397Z,34.40
2019-02-05T05:35:04.387Z,33.40
2019-02-05T05:36:04.372Z,33.90
2019-02-05T05:37:04.366Z,35.10
2019-02-05T05:38:04.375Z,36.50
2019-02-05T05:39:04.342Z,38.10
2019-02-05T05:40:04.341Z,39.10
2019-02-05T05:41:04.320Z,37.10
2019-02-05T05:42:04.354Z,36.00
2019-02-05T05:43:04.337Z,37.10
2019-02-05T05:44:04.311Z,32.70
2019-02-05T05:45:04.275Z,39.70
2019-02-05T05:46:04.273Z,35.30
2019-02-05T05:47:04.266Z,35.90
2019-02-05T05:48:04.248Z,35.90
2019-02-05T05:49:04.252Z,35.70
2019-02-05T05:50:04.231Z,34.20
2019-02-05T05:51:04.213Z,34.20
2019-02-05T05:52:04.252Z,39.90
2019-02-05T05:53:04.188Z,35.30
2019-02-05T05:54:04.177Z,37.80
2019-02-05T05:55:04.183Z,41.40
2019-02-05T05:56:04.155Z,39.60
2019-02-05T05:57:04.140Z,37.70
2019-02-05T05:58:04.151Z,40.10
2019-02-05T05:59:04.119Z,39.00
2019-02-05T06:00:04.107Z,45.30
2019-02-05T06:01:04.142Z,36.00
2019-02-05T06:02:04.090Z,40.70
2019-02-05T06:03:04.074Z,37.30
2019-02-05T06:04:04.068Z,37.20
2019-02-05T06:05:04.054Z,35.30
2019-02-05T06:06:04.043Z,38.70
2019-02-05T06:07:04.050Z,38.90
2019-02-05T06:08:04.030Z,39.00
2019-02-05T06:09:04.022Z,37.00
2019-02-05T06:10:07.010Z,37.40
2019-02-05T06:11:03.995Z,40.20
2019-02-05T06:12:03.977Z,42.80
2019-02-05T06:13:04.013Z,43.10
2019-02-05T06:14:03.957Z,41.80
2019-02-05T06:15:03.943Z,40.10
2019-02-05T06:16:03.935Z,39.00
2019-02-05T06:17:03.937Z,42.50
2019-02-05T06:18:03.912Z,42.80
2019-02-05T06:19:03.908Z,40.60
2019-02-05T06:20:03.915Z,41.10
2019-02-05T06:21:03.887Z,44.40
2019-02-05T06:22:03.865Z,45.10
2019-02-05T06:23:03.856Z,41.20
2019-02-05T06:24:03.846Z,42.30
2019-02-05T06:25:03.849Z,47.30
2019-02-05T06:26:03.819Z,39.40
2019-02-05T06:27:03.832Z,42.90
2019-02-05T06:28:03.799Z,49.20
2019-02-05T06:29:03.785Z,42.50
2019-02-05T06:30:03.783Z,45.20
2019-02-05T06:31:03.781Z,38.10
2019-02-05T06:32:03.760Z,39.80
2019-02-05T06:33:03.750Z,40.20
2019-02-05T06:34:03.736Z,39.60
2019-02-05T06:35:03.720Z,40.20
2019-02-05T06:36:03.708Z,40.40
2019-02-05T06:37:03.720Z,41.40
2019-02-05T06:38:03.691Z,44.40
2019-02-05T06:39:03.678Z,41.90
2019-02-05T06:40:03.667Z,43.60
2019-02-05T06:41:03.672Z,44.70
2019-02-05T06:42:03.641Z,44.10
2019-02-05T06:43:03.639Z,47.60
2019-02-05T06:44:03.620Z,46.30
2019-02-05T06:45:03.620Z,41.00
2019-02-05T06:46:03.602Z,41.50
2019-02-05T06:47:03.595Z,45.20
2019-02-05T06:48:03.592Z,44.40
2019-02-05T06:49:03.565Z,46.50
2019-02-05T06:50:03.556Z,42.40
2019-02-05T06:51:03.544Z,47.80
2019-02-05T06:52:03.528Z,43.80
2019-02-05T06:53:03.532Z,44.90
2019-02-05T06:54:03.534Z,41.80
2019-02-05T06:55:03.501Z,42.90
2019-02-05T06:56:03.487Z,43.40
2019-02-05T06:57:03.478Z,46.10
2019-02-05T06:58:03.473Z,44.00
2019-02-05T06:59:03.455Z,38.80
2019-02-05T07:00:03.480Z,40.00
2019-02-05T07:01:03.437Z,40.80
2019-02-05T07:02:03.423Z,40.70
2019-02-05T07:03:03.411Z,41.30
2019-02-05T07:04:03.402Z,41.60
2019-02-05T07:05:03.406Z,45.00
2019-02-05T07:06:03.407Z,44.00
2019-02-05T07:07:03.382Z,46.20
2019-02-05T07:08:03.369Z,41.90
2019-02-05T07:09:03.363Z,41.10
2019-02-05T07:10:03.349Z,45.20
2019-02-05T07:11:03.341Z,43.30
2019-02-05T07:12:03.340Z,47.40
2019-02-05T07:13:03.322Z,43.80
2019-02-05T07:14:03.307Z,48.10
2019-02-05T07:15:03.323Z,45.90
2019-02-05T07:16:03.279Z,47.50
2019-02-05T07:17:03.268Z,43.20
2019-02-05T07:18:03.270Z,45.20
2019-02-05T07:19:03.252Z,48.00
2019-02-05T07:20:03.231Z,45.40
2019-02-05T07:21:03.256Z,45.90
2019-02-05T07:22:03.213Z,46.70
2019-02-05T07:23:03.201Z,47.10
2019-02-05T07:24:03.203Z,48.30
2019-02-05T07:25:03.180Z,46.90
2019-02-05T07:26:03.175Z,43.80
2019-02-05T07:27:03.174Z,52.40
2019-02-05T07:28:03.148Z,46.30
2019-02-05T07:29:03.148Z,46.90
2019-02-05T07:30:03.130Z,47.70
2019-02-05T07:31:03.133Z,48.40
2019-02-05T07:32:03.101Z,47.00
2019-02-05T07:33:03.103Z,51.70
2019-02-05T07:34:03.092Z,46.00
2019-02-05T07:35:03.088Z,49.50
2019-02-05T07:36:03.061Z,51.80
2019-02-05T07:37:03.102Z,47.00
2019-02-05T07:38:03.044Z,50.10
2019-02-05T07:39:03.022Z,50.70
2019-02-05T07:40:03.019Z,47.60
2019-02-05T07:41:03.027Z,48.40
2019-02-05T07:42:02.992Z,51.60
2019-02-05T07:43:02.990Z,47.00
2019-02-05T07:44:03.016Z,45.80
2019-02-05T07:45:02.959Z,46.80
2019-02-05T07:46:02.959Z,50.70
2019-02-05T07:47:02.935Z,46.10
2019-02-05T07:48:02.940Z,51.10
2019-02-05T07:49:02.958Z,49.20
2019-02-05T07:50:02.901Z,51.10
2019-02-05T07:51:02.891Z,52.80
2019-02-05T07:52:02.895Z,50.50
2019-02-05T07:53:02.871Z,48.60
2019-02-05T07:54:02.862Z,53.80
2019-02-05T07:55:02.848Z,56.30
2019-02-05T07:56:02.836Z,53.30
2019-02-05T07:57:02.846Z,52.40
2019-02-05T07:58:02.832Z,47.40
2019-02-05T07:59:09.839Z,52.70
2019-02-05T08:00:03.791Z,53.60
2019-02-05T08:01:02.803Z,52.10
2019-02-05T08:02:02.772Z,56.40
2019-02-05T08:03:02.760Z,39.30
2019-02-05T08:04:02.801Z,48.20
2019-02-05T08:05:02.738Z,47.40
2019-02-05T08:06:02.723Z,49.20
2019-02-05T08:07:02.715Z,46.10
2019-02-05T08:08:02.724Z,45.10
2019-02-05T08:09:02.702Z,49.70
2019-02-05T08:10:02.678Z,50.40
2019-02-05T08:11:02.664Z,49.30
2019-02-05T08:12:02.664Z,51.90
2019-02-05T08:13:02.673Z,51.90
2019-02-05T08:14:02.634Z,49.70
2019-02-05T08:15:02.639Z,56.00
2019-02-05T08:16:02.624Z,47.60
2019-02-05T08:17:02.600Z,44.90
2019-02-05T08:18:02.590Z,51.30
2019-02-05T08:19:02.579Z,57.20
2019-02-05T08:20:02.577Z,56.90
2019-02-05T08:21:02.572Z,50.20
2019-02-05T08:22:02.545Z,52.30
2019-02-05T08:23:02.542Z,49.30
2019-02-05T08:24:02.523Z,48.90
2019-02-05T08:25:02.519Z,55.20
2019-02-05T08:26:02.513Z,54.90
2019-02-05T08:27:02.500Z,49.50
2019-02-05T08:28:02.480Z,47.50
2019-02-05T08:29:02.470Z,54.70
2019-02-05T08:30:02.457Z,49.00
2019-02-05T08:31:02.445Z,52.30
2019-02-05T08:32:02.461Z,53.90
2019-02-05T08:33:02.424Z,56.20
2019-02-05T08:34:03.351Z,54.50
2019-02-05T08:35:02.408Z,53.10
2019-02-05T08:36:02.394Z,58.40
2019-02-05T08:37:02.382Z,64.90
2019-02-05T08:38:02.400Z,56.20
2019-02-05T08:39:02.358Z,53.20
2019-02-05T08:40:02.349Z,56.40
2019-02-05T08:41:02.336Z,55.30
2019-02-05T08:42:02.513Z,60.90
2019-02-05T08:43:02.472Z,55.50
2019-02-05T08:44:02.499Z,51.30
2019-02-05T08:45:02.358Z,49.30
2019-02-05T08:46:02.481Z,47.10
2019-02-05T08:47:02.277Z,48.10
2019-02-05T08:48:02.279Z,51.00
2019-02-05T08:49:02.279Z,47.20
2019-02-05T08:50:02.264Z,45.40
2019-02-05T08:51:02.254Z,46.30
2019-02-05T08:52:02.211Z,48.10
2019-02-05T08:53:02.200Z,43.70
2019-02-05T08:54:02.190Z,43.80
2019-02-05T08:55:02.228Z,44.80
2019-02-05T08:56:02.192Z,45.40
2019-02-05T08:57:02.164Z,43.90
2019-02-05T08:58:02.163Z,42.50
2019-02-05T08:59:02.144Z,45.70
2019-02-05T09:00:02.149Z,42.90
2019-02-05T09:01:02.135Z,48.10
2019-02-05T09:02:02.127Z,49.60
2019-02-05T09:03:02.102Z,59.30
2019-02-05T09:04:02.097Z,50.90
2019-02-05T09:05:02.088Z,47.20
2019-02-05T09:06:02.086Z,44.00
2019-02-05T09:07:02.079Z,43.10
2019-02-05T09:08:02.055Z,42.80
2019-02-05T09:09:02.053Z,43.00
2019-02-05T09:10:02.033Z,43.50
2019-02-05T09:11:02.034Z,46.80
2019-02-05T09:12:01.988Z,58.80
2019-02-05T09:13:01.979Z,66.50
2019-02-05T09:14:10.489Z,44.70
2019-02-05T09:15:02.968Z,47.90
2019-02-05T09:16:01.963Z,45.30
2019-02-05T09:17:01.932Z,45.70
2019-02-05T09:18:01.924Z,45.90
2019-02-05T09:19:01.934Z,44.00
2019-02-05T09:20:01.936Z,45.10
2019-02-05T09:21:01.898Z,40.10
2019-02-05T09:22:01.917Z,41.90
2019-02-05T09:23:01.877Z,40.30
2019-02-05T09:24:01.865Z,37.80
2019-02-05T09:25:01.868Z,48.20
2019-02-05T09:26:01.861Z,42.70
2019-02-05T09:27:01.835Z,42.20
2019-02-05T09:28:01.841Z,41.70
2019-02-05T09:29:01.799Z,42.70
2019-02-05T09:30:01.841Z,38.80
2019-02-05T09:31:01.808Z,38.90
2019-02-05T09:32:01.796Z,39.20
2019-02-05T09:33:01.792Z,45.60
2019-02-05T09:34:01.743Z,50.70
2019-02-05T09:35:01.744Z,48.50
2019-02-05T09:36:01.721Z,62.60
2019-02-05T09:37:01.727Z,49.10
2019-02-05T09:38:01.722Z,42.30
2019-02-05T09:39:01.718Z,36.00
2019-02-05T09:40:01.677Z,42.60
2019-02-05T09:41:01.673Z,39.70
2019-02-05T09:42:01.654Z,37.30
2019-02-05T09:43:01.643Z,39.90
2019-02-05T09:44:01.652Z,39.90
2019-02-05T09:45:01.647Z,39.90
2019-02-05T09:46:01.609Z,38.90
2019-02-05T09:47:01.623Z,40.80
2019-02-05T09:48:01.592Z,46.40
2019-02-05T09:49:01.591Z,45.20
2019-02-05T09:50:01.598Z,41.70
2019-02-05T09:51:01.572Z,41.40
2019-02-05T09:52:01.546Z,37.30
2019-02-05T09:53:01.534Z,32.00
2019-02-05T09:54:01.521Z,37.40
2019-02-05T09:55:01.522Z,36.90
2019-02-05T09:56:01.551Z,39.00
2019-02-05T09:57:01.515Z,39.30
2019-02-05T09:58:01.479Z,36.40
2019-02-05T09:59:01.478Z,40.20
2019-02-05T10:00:01.460Z,35.70
2019-02-05T10:01:01.490Z,35.00
2019-02-05T10:02:01.460Z,36.20
2019-02-05T10:03:01.440Z,36.90
2019-02-05T10:04:01.414Z,39.50
2019-02-05T10:05:01.429Z,39.30
2019-02-05T10:06:01.389Z,36.10
2019-02-05T10:07:01.414Z,33.70
2019-02-05T10:08:01.379Z,42.40
2019-02-05T10:09:01.385Z,40.20
2019-02-05T10:10:01.343Z,41.30
2019-02-05T10:11:01.348Z,36.70
2019-02-05T10:12:01.347Z,39.90
2019-02-05T10:13:01.311Z,39.60
2019-02-05T10:14:01.325Z,38.50
2019-02-05T10:15:01.313Z,34.50
2019-02-05T10:16:01.324Z,34.40
2019-02-05T10:17:01.280Z,36.40
2019-02-05T10:18:01.273Z,37.40
2019-02-05T10:19:01.244Z,32.20
2019-02-05T10:20:01.250Z,36.50
2019-02-05T10:21:01.264Z,39.90
2019-02-05T10:22:01.215Z,36.30
2019-02-05T10:23:01.213Z,38.20
2019-02-05T10:24:01.225Z,35.20
2019-02-05T10:25:01.188Z,35.40
2019-02-05T10:26:01.182Z,36.60
2019-02-05T10:27:01.187Z,37.60
2019-02-05T10:28:01.145Z,32.50
2019-02-05T10:29:01.175Z,36.30
2019-02-05T10:30:01.137Z,36.30
2019-02-05T10:31:01.120Z,46.50
2019-02-05T10:32:01.122Z,35.10
2019-02-05T10:33:01.119Z,40.10
2019-02-05T10:34:01.085Z,33.30
2019-02-05T10:35:01.099Z,37.20
2019-02-05T10:36:01.494Z,38.80
2019-02-05T10:37:01.069Z,48.80
2019-02-05T10:38:01.060Z,54.30
2019-02-05T10:39:01.050Z,66.60
2019-02-05T10:40:01.024Z,55.40
2019-02-05T10:41:01.006Z,48.60
2019-02-05T10:42:00.995Z,41.40
2019-02-05T10:43:01.019Z,42.90
2019-02-05T10:44:00.967Z,44.50
2019-02-05T10:45:00.983Z,35.20
2019-02-05T10:46:00.964Z,36.40
2019-02-05T10:47:00.948Z,37.50
2019-02-05T10:48:00.925Z,41.60
2019-02-05T10:49:03.303Z,38.20
2019-02-05T10:50:00.902Z,37.10
2019-02-05T10:51:00.946Z,38.80
2019-02-05T10:52:00.921Z,33.00
2019-02-05T10:53:00.871Z,47.60
2019-02-05T10:54:00.878Z,42.50
2019-02-05T10:55:00.894Z,38.00
2019-02-05T10:56:00.862Z,37.30
2019-02-05T10:57:00.854Z,40.90
2019-02-05T10:58:00.826Z,40.40
2019-02-05T10:59:00.803Z,41.60
2019-02-05T11:00:08.361Z,35.60
2019-02-05T11:01:01.813Z,32.60
2019-02-05T11:02:00.779Z,31.80
2019-02-05T11:03:00.798Z,34.70
2019-02-05T11:04:00.746Z,35.60
2019-02-05T11:05:00.748Z,33.80
2019-02-05T11:06:00.751Z,35.20
2019-02-05T11:07:00.749Z,35.10
2019-02-05T11:08:00.749Z,34.00
2019-02-05T11:09:00.698Z,35.00
2019-02-05T11:10:00.695Z,38.20
2019-02-05T11:11:00.701Z,42.60
2019-02-05T11:12:00.687Z,38.00
2019-02-05T11:13:00.654Z,45.60
2019-02-05T11:14:00.634Z,45.70
2019-02-05T11:15:00.657Z,38.50
2019-02-05T11:16:00.691Z,37.70
2019-02-05T11:17:00.602Z,32.30
2019-02-05T11:18:00.623Z,35.20
2019-02-05T11:19:00.602Z,35.10
2019-02-05T11:20:00.597Z,32.50
2019-02-05T11:21:00.569Z,35.70
2019-02-05T11:22:00.578Z,36.50
2019-02-05T11:23:00.551Z,38.70
2019-02-05T11:24:00.552Z,37.10
2019-02-05T11:25:00.526Z,36.80
2019-02-05T11:26:00.532Z,40.50
2019-02-05T11:27:00.493Z,34.50
2019-02-05T11:28:00.513Z,33.70
2019-02-05T11:29:00.523Z,31.00
2019-02-05T11:30:00.461Z,31.00
2019-02-05T11:31:00.462Z,36.90
2019-02-05T11:32:00.479Z,33.80
2019-02-05T11:33:00.439Z,38.50
2019-02-05T11:34:00.458Z,31.40
2019-02-05T11:35:00.403Z,29.70
2019-02-05T11:36:00.394Z,30.80
2019-02-05T11:37:00.441Z,35.40
2019-02-05T11:38:00.382Z,32.20
2019-02-05T11:39:00.390Z,33.10
2019-02-05T11:40:00.378Z,34.60
2019-02-05T11:41:00.337Z,35.00
2019-02-05T11:42:00.353Z,32.80
2019-02-05T11:43:00.330Z,38.20
2019-02-05T11:44:00.325Z,39.50
2019-02-05T11:45:00.308Z,31.50
2019-02-05T11:46:00.313Z,40.80
2019-02-05T11:47:00.289Z,48.90
2019-02-05T11:48:00.302Z,48.10
2019-02-05T11:49:00.253Z,33.80
2019-02-05T11:50:00.340Z,44.90
2019-02-05T11:51:00.231Z,48.50
2019-02-05T11:52:00.251Z,65.20
2019-02-05T11:53:00.214Z,58.00
2019-02-05T11:54:00.216Z,74.80
2019-02-05T11:55:00.362Z,49.40
2019-02-05T11:56:00.177Z,74.10
2019-02-05T11:57:00.160Z,46.30
2019-02-05T11:58:00.183Z,40.80
2019-02-05T11:59:00.165Z,41.70
2019-02-05T12:00:00.226Z,41.00
2019-02-05T12:01:00.127Z,35.40
2019-02-05T12:02:00.163Z,30.70
2019-02-05T12:03:00.094Z,31.80
2019-02-05T12:04:00.107Z,36.80
2019-02-05T12:05:00.334Z,31.00
2019-02-05T12:06:00.085Z,31.20
2019-02-05T12:07:00.064Z,33.30
2019-02-05T12:08:00.053Z,30.60
2019-02-05T12:09:00.041Z,32.80
2019-02-05T12:10:00.055Z,32.50
2019-02-05T12:11:00.066Z,31.40
2019-02-05T12:12:00.015Z,28.90
2019-02-05T12:12:59.994Z,34.30
2019-02-05T12:13:59.970Z,30.80
2019-02-05T12:14:59.974Z,29.50
2019-02-05T12:15:59.986Z,33.30
2019-02-05T12:17:00.005Z,29.70
2019-02-05T12:17:59.927Z,28.40
2019-02-05T12:18:59.930Z,27.60
2019-02-05T12:19:59.917Z,33.20
2019-02-05T12:20:59.910Z,30.70
2019-02-05T12:21:59.935Z,29.30
2019-02-05T12:22:59.892Z,32.70
2019-02-05T12:23:59.895Z,29.00
2019-02-05T12:24:59.867Z,28.50
2019-02-05T12:25:59.841Z,30.50
2019-02-05T12:26:59.827Z,28.70
2019-02-05T12:27:59.869Z,32.20
2019-02-05T12:28:59.828Z,29.10
2019-02-05T12:29:59.809Z,27.30
2019-02-05T12:30:59.794Z,29.00
2019-02-05T12:31:59.811Z,28.90
2019-02-05T12:33:01.886Z,30.30
2019-02-05T12:33:59.779Z,30.20
2019-02-05T12:34:59.757Z,26.30
2019-02-05T12:35:59.760Z,27.40
2019-02-05T12:36:59.722Z,26.90
2019-02-05T12:37:59.742Z,27.10
2019-02-05T12:38:59.742Z,30.60
2019-02-05T12:39:59.697Z,28.80
2019-02-05T12:40:59.680Z,29.40
2019-02-05T12:41:59.667Z,30.50
2019-02-05T12:42:59.656Z,27.90
2019-02-05T12:43:59.901Z,29.00
2019-02-05T12:44:59.644Z,28.50
2019-02-05T12:45:59.686Z,26.90
2019-02-05T12:46:59.611Z,29.70
2019-02-05T12:47:59.628Z,28.50
2019-02-05T12:48:59.596Z,29.90
2019-02-05T12:49:59.600Z,29.50
2019-02-05T12:50:59.585Z,29.30
2019-02-05T12:51:59.581Z,31.20
2019-02-05T12:52:59.556Z,28.00
2019-02-05T12:53:59.546Z,33.20
2019-02-05T12:55:12.756Z,31.20